Time;durP1;ratioP1;P1;durP2;ratioP2;P2;SDS_P1;SDS_P2;PMS_P1;PMS_P2;Temp;Humidity;BMP_temperature;BMP_pressure;BME280_temperature;BME280_humidity;BME280_pressure;Samples;Min_cycle;Max_cycle;Signal;HPM_P1;HPM_P2
2023/04/05 00:00:42;;;;;;;4.72;3.13;;;;;;;;;;5013532;28;20382;-60
2023/04/05 00:03:11;;;;;;;4.85;3.30;;;;;;;;;;5013370;28;20054;-63
2023/04/05 00:05:38;;;;;;;5.05;3.00;;;;;;;;;;5013438;28;20062;-63
2023/04/05 00:08:12;;;;;;;5.82;3.30;;;;;;;;;;5013849;28;20467;-63
2023/04/05 00:10:38;;;;;;;5.65;3.20;;;;;;;;;;5013478;28;20533;-63
2023/04/05 00:13:04;;;;;;;5.65;2.78;;;;;;;;;;5013418;28;20097;-64
2023/04/05 00:15:30;;;;;;;4.65;3.50;;;;;;;;;;5012939;28;20490;-63
2023/04/05 00:17:57;;;;;;;7.53;3.10;;;;;;;;;;5007140;28;20027;-63
2023/04/05 00:20:23;;;;;;;6.55;3.08;;;;;;;;;;4994337;28;20050;-63
2023/04/05 00:22:52;;;;;;;5.72;2.72;;;;;;;;;;4994054;28;20222;-63
2023/04/05 00:25:18;;;;;;;5.22;2.72;;;;;;;;;;5013183;28;20113;-63
2023/04/05 00:27:44;;;;;;;6.40;3.55;;;;;;;;;;5013249;28;20037;-63
2023/04/05 00:30:10;;;;;;;5.35;3.60;;;;;;;;;;5013398;28;20034;-63
2023/04/05 00:32:36;;;;;;;5.20;2.85;;;;;;;;;;5012931;28;20050;-63
2023/04/05 00:35:02;;;;;;;4.15;3.03;;;;;;;;;;5012970;28;20058;-63
2023/04/05 00:37:28;;;;;;;5.80;2.78;;;;;;;;;;5013403;28;20497;-63
2023/04/05 00:39:56;;;;;;;6.20;3.00;;;;;;;;;;5012516;28;20026;-63
2023/04/05 00:42:22;;;;;;;4.22;2.70;;;;;;;;;;5012247;28;20074;-63
2023/04/05 00:44:48;;;;;;;4.30;3.42;;;;;;;;;;5012681;28;20538;-63
2023/04/05 00:47:14;;;;;;;4.78;3.25;;;;;;;;;;5012761;28;20128;-63
2023/04/05 00:49:40;;;;;;;3.95;3.25;;;;;;;;;;5012803;28;20022;-63
2023/04/05 00:52:07;;;;;;;5.88;3.40;;;;;;;;;;5013271;28;20053;-63
2023/04/05 00:54:33;;;;;;;5.57;3.05;;;;;;;;;;5012660;28;20045;-63
2023/04/05 00:56:59;;;;;;;3.88;2.88;;;;;;;;;;5009894;28;20036;-63
2023/04/05 00:59:27;;;;;;;4.82;2.67;;;;;;;;;;4994005;28;20475;-63
2023/04/05 01:01:56;;;;;;;5.90;3.45;;;;;;;;;;5002679;28;20025;-63
2023/04/05 01:04:26;;;;;;;4.47;3.10;;;;;;;;;;5012821;28;20033;-63
2023/04/05 01:06:59;;;;;;;5.03;3.22;;;;;;;;;;5012201;28;20068;-62
2023/04/05 01:09:31;;;;;;;5.13;3.00;;;;;;;;;;5012794;28;20101;-63
2023/04/05 01:12:00;;;;;;;5.57;2.90;;;;;;;;;;5012971;28;20025;-63
2023/04/05 01:14:26;;;;;;;4.78;3.40;;;;;;;;;;5012764;28;20042;-63
2023/04/05 01:16:57;;;;;;;5.07;2.97;;;;;;;;;;5011684;28;20556;-63
2023/04/05 01:19:26;;;;;;;4.93;3.15;;;;;;;;;;5012707;28;20074;-63
2023/04/05 01:22:12;;;;;;;4.85;2.80;;;;;;;;;;5012579;28;20014;-62
2023/04/05 01:24:45;;;;;;;5.85;3.35;;;;;;;;;;5012168;28;20061;-63
2023/04/05 01:27:16;;;;;;;4.20;2.78;;;;;;;;;;5012380;28;20038;-63
2023/04/05 01:29:50;;;;;;;4.30;2.70;;;;;;;;;;5012481;28;20426;-62
2023/04/05 01:32:42;;;;;;;4.05;2.90;;;;;;;;;;5012388;28;20034;-63
2023/04/05 01:35:17;;;;;;;5.07;3.08;;;;;;;;;;5009670;28;20050;-62
2023/04/05 01:37:44;;;;;;;3.92;2.92;;;;;;;;;;5012302;28;20026;-63
2023/04/05 01:40:10;;;;;;;4.55;2.80;;;;;;;;;;5012203;28;20029;-63
2023/04/05 01:42:36;;;;;;;4.22;2.63;;;;;;;;;;5011784;28;20524;-63
2023/04/05 01:45:02;;;;;;;4.80;2.40;;;;;;;;;;5011743;28;20033;-63
2023/04/05 01:47:28;;;;;;;3.90;2.65;;;;;;;;;;5012272;28;20108;-62
2023/04/05 01:49:54;;;;;;;4.78;2.80;;;;;;;;;;5012140;28;20437;-62
2023/04/05 01:52:20;;;;;;;4.85;3.25;;;;;;;;;;5011853;28;20033;-62
2023/04/05 01:54:46;;;;;;;4.22;2.78;;;;;;;;;;5010918;28;20042;-63
2023/04/05 01:57:12;;;;;;;4.68;2.70;;;;;;;;;;5011424;28;20045;-62
2023/04/05 01:59:38;;;;;;;4.60;2.70;;;;;;;;;;5011398;28;20512;-62
2023/04/05 02:02:04;;;;;;;5.13;3.03;;;;;;;;;;5011919;28;20084;-63
2023/04/05 02:04:30;;;;;;;5.10;3.17;;;;;;;;;;5011829;28;20033;-63
2023/04/05 02:06:56;;;;;;;5.28;2.70;;;;;;;;;;5011784;28;20115;-61
2023/04/05 02:09:22;;;;;;;4.05;2.70;;;;;;;;;;5011596;28;20061;-60
2023/04/05 02:11:48;;;;;;;5.25;2.83;;;;;;;;;;5011179;28;20072;-61
2023/04/05 02:14:14;;;;;;;4.38;2.72;;;;;;;;;;5011464;28;20125;-60
2023/04/05 02:16:40;;;;;;;3.95;2.83;;;;;;;;;;5010920;28;20054;-61
2023/04/05 02:19:06;;;;;;;4.40;3.00;;;;;;;;;;5011374;28;20033;-61
2023/04/05 02:21:32;;;;;;;4.30;2.92;;;;;;;;;;5011246;28;20030;-61
2023/04/05 02:23:58;;;;;;;4.80;3.55;;;;;;;;;;5011364;28;20490;-61
2023/04/05 02:26:24;;;;;;;5.82;2.70;;;;;;;;;;5011749;28;20038;-60
2023/04/05 02:28:50;;;;;;;7.05;2.65;;;;;;;;;;5011047;28;20029;-60
2023/04/05 02:31:16;;;;;;;5.32;2.88;;;;;;;;;;4993187;28;20026;-62
2023/04/05 02:33:42;;;;;;;4.60;2.85;;;;;;;;;;4995056;28;20129;-61
2023/04/05 02:36:09;;;;;;;4.13;2.78;;;;;;;;;;4991481;28;20391;-61
2023/04/05 02:38:35;;;;;;;6.03;2.58;;;;;;;;;;4994790;28;20044;-60
2023/04/05 02:41:01;;;;;;;4.40;3.17;;;;;;;;;;5011507;28;20044;-62
2023/04/05 02:43:27;;;;;;;4.18;2.75;;;;;;;;;;5010909;28;20501;-60
2023/04/05 02:45:53;;;;;;;6.10;2.88;;;;;;;;;;5010669;28;20025;-62
2023/04/05 02:48:19;;;;;;;4.72;2.65;;;;;;;;;;5010793;28;20030;-61
2023/04/05 02:50:49;;;;;;;3.67;2.83;;;;;;;;;;4992986;28;20029;-60
2023/04/05 02:53:16;;;;;;;3.67;2.25;;;;;;;;;;5010716;28;20062;-60
2023/04/05 02:55:42;;;;;;;5.30;3.00;;;;;;;;;;5010605;28;20116;-61
2023/04/05 02:58:08;;;;;;;4.57;3.25;;;;;;;;;;5010991;28;20366;-61
2023/04/05 03:00:35;;;;;;;4.40;2.50;;;;;;;;;;5010729;28;20035;-62
2023/04/05 03:03:01;;;;;;;3.88;3.03;;;;;;;;;;5010526;28;20037;-63
2023/04/05 03:05:27;;;;;;;4.00;2.63;;;;;;;;;;4993498;28;20030;-60
2023/04/05 03:07:53;;;;;;;4.00;2.30;;;;;;;;;;4998994;28;20030;-60
2023/04/05 03:10:27;;;;;;;3.70;2.78;;;;;;;;;;5015062;28;20064;-60
2023/04/05 03:12:53;;;;;;;5.30;3.13;;;;;;;;;;5014637;28;20553;-60
2023/04/05 03:15:19;;;;;;;3.22;2.45;;;;;;;;;;5014923;28;20116;-60
2023/04/05 03:17:45;;;;;;;5.15;2.40;;;;;;;;;;5014365;28;20088;-60
2023/04/05 03:20:12;;;;;;;3.03;2.28;;;;;;;;;;5014612;28;20474;-61
2023/04/05 03:22:38;;;;;;;4.35;2.78;;;;;;;;;;5014433;28;20030;-61
2023/04/05 03:25:04;;;;;;;3.65;2.67;;;;;;;;;;5013802;28;20064;-60
2023/04/05 03:27:30;;;;;;;5.60;2.60;;;;;;;;;;5014761;28;20029;-61
2023/04/05 03:29:56;;;;;;;4.38;2.85;;;;;;;;;;5014729;28;20042;-61
2023/04/05 03:32:22;;;;;;;3.42;2.25;;;;;;;;;;5013628;28;20163;-60
2023/04/05 03:34:48;;;;;;;4.80;2.63;;;;;;;;;;5008252;28;20101;-60
2023/04/05 03:37:14;;;;;;;3.90;2.67;;;;;;;;;;4994948;28;20023;-61
2023/04/05 03:39:40;;;;;;;5.55;2.72;;;;;;;;;;4999733;28;20041;-60
2023/04/05 03:42:06;;;;;;;3.22;2.30;;;;;;;;;;5014372;28;20504;-61
2023/04/05 03:44:32;;;;;;;6.35;2.63;;;;;;;;;;5014005;28;20161;-61
2023/04/05 03:46:58;;;;;;;3.33;2.40;;;;;;;;;;5014498;28;20092;-60
2023/04/05 03:49:25;;;;;;;3.70;2.47;;;;;;;;;;5013594;28;20046;-61
2023/04/05 03:51:51;;;;;;;3.75;2.55;;;;;;;;;;5013979;28;20080;-61
2023/04/05 03:54:17;;;;;;;4.85;2.55;;;;;;;;;;5014000;28;20038;-61
2023/04/05 03:56:43;;;;;;;4.47;2.97;;;;;;;;;;5013661;28;20061;-61
2023/04/05 03:59:09;;;;;;;4.65;2.72;;;;;;;;;;5013716;28;20041;-60
2023/04/05 04:01:35;;;;;;;3.28;2.30;;;;;;;;;;5013646;28;20022;-61
2023/04/05 04:04:03;;;;;;;4.15;2.70;;;;;;;;;;5013325;28;20044;-63
2023/04/05 04:06:29;;;;;;;5.47;2.72;;;;;;;;;;5003010;28;20031;-62
2023/04/05 04:08:56;;;;;;;3.08;2.40;;;;;;;;;;4994731;28;20114;-61
2023/04/05 04:11:22;;;;;;;5.20;2.58;;;;;;;;;;4999400;28;20022;-61
2023/04/05 04:13:48;;;;;;;3.45;2.60;;;;;;;;;;5013318;28;20048;-61
2023/04/05 04:16:16;;;;;;;3.15;2.50;;;;;;;;;;5013150;28;20038;-61
2023/04/05 04:18:42;;;;;;;3.30;2.65;;;;;;;;;;5013333;28;20037;-61
2023/04/05 04:21:09;;;;;;;3.33;2.67;;;;;;;;;;5013343;28;20026;-61
2023/04/05 04:23:37;;;;;;;3.95;2.70;;;;;;;;;;5013059;28;20429;-61
2023/04/05 04:26:03;;;;;;;3.60;2.30;;;;;;;;;;5013642;28;20038;-62
2023/04/05 04:28:33;;;;;;;4.00;2.30;;;;;;;;;;5013663;28;20030;-62
2023/04/05 04:31:03;;;;;;;4.53;2.50;;;;;;;;;;5014082;28;20075;-62
2023/04/05 04:33:29;;;;;;;3.45;2.40;;;;;;;;;;5012888;28;20042;-62
2023/04/05 04:35:56;;;;;;;3.13;2.53;;;;;;;;;;5013487;28;20109;-62
2023/04/05 04:38:24;;;;;;;4.10;2.13;;;;;;;;;;5013553;28;20072;-63
2023/04/05 04:40:52;;;;;;;3.63;2.40;;;;;;;;;;5013140;28;20034;-63
2023/04/05 04:43:25;;;;;;;3.78;2.28;;;;;;;;;;5012490;28;20121;-63
2023/04/05 04:45:53;;;;;;;3.22;2.40;;;;;;;;;;5013485;28;20088;-62
2023/04/05 04:48:20;;;;;;;5.00;2.58;;;;;;;;;;5012737;28;20037;-63
2023/04/05 04:50:50;;;;;;;4.05;2.67;;;;;;;;;;5012543;28;20056;-62
2023/04/05 04:53:17;;;;;;;3.85;2.58;;;;;;;;;;5012913;28;20330;-63
2023/04/05 04:55:43;;;;;;;4.80;3.00;;;;;;;;;;5012875;28;20418;-63
2023/04/05 04:58:10;;;;;;;4.50;2.63;;;;;;;;;;5012393;28;20045;-62
2023/04/05 05:00:40;;;;;;;4.82;2.35;;;;;;;;;;5008877;28;20029;-62
2023/04/05 05:03:07;;;;;;;2.90;2.08;;;;;;;;;;5012702;28;20030;-63
2023/04/05 05:05:33;;;;;;;4.53;2.78;;;;;;;;;;5012220;28;20038;-63
2023/04/05 05:07:59;;;;;;;3.95;2.53;;;;;;;;;;5013191;28;20494;-60
2023/04/05 05:10:25;;;;;;;4.63;2.58;;;;;;;;;;5012004;28;20041;-62
2023/04/05 05:12:51;;;;;;;3.72;2.55;;;;;;;;;;5012782;28;20025;-63
2023/04/05 05:15:18;;;;;;;4.60;2.70;;;;;;;;;;5012440;28;20145;-63
2023/04/05 05:17:44;;;;;;;5.40;2.72;;;;;;;;;;5012367;28;20515;-62
2023/04/05 05:20:11;;;;;;;4.72;2.35;;;;;;;;;;5012004;28;20030;-63
2023/04/05 05:22:38;;;;;;;3.33;2.42;;;;;;;;;;5012413;28;20375;-62
2023/04/05 05:25:05;;;;;;;4.22;3.20;;;;;;;;;;5012456;28;20041;-62
2023/04/05 05:27:32;;;;;;;4.13;2.80;;;;;;;;;;4999432;28;20390;-63
2023/04/05 05:29:58;;;;;;;2.58;2.13;;;;;;;;;;4993085;28;20026;-62
2023/04/05 05:32:24;;;;;;;3.20;2.40;;;;;;;;;;5014218;28;20034;-62
2023/04/05 05:34:51;;;;;;;3.65;2.67;;;;;;;;;;5032298;28;20073;-63
2023/04/05 05:37:17;;;;;;;3.90;2.50;;;;;;;;;;5032222;28;20021;-62
2023/04/05 05:39:43;;;;;;;4.82;2.80;;;;;;;;;;5032002;28;20385;-62
2023/04/05 05:42:09;;;;;;;3.30;2.38;;;;;;;;;;5001366;28;20034;-62
2023/04/05 05:44:36;;;;;;;4.47;2.70;;;;;;;;;;5011422;28;20037;-62
2023/04/05 05:47:02;;;;;;;4.63;2.78;;;;;;;;;;5011741;28;20022;-62
2023/04/05 05:49:28;;;;;;;3.33;2.55;;;;;;;;;;5012015;28;20409;-61
2023/04/05 05:51:56;;;;;;;6.90;2.75;;;;;;;;;;5011743;28;20040;-63
2023/04/05 05:54:22;;;;;;;5.95;2.55;;;;;;;;;;5012281;28;20402;-63
2023/04/05 05:56:47;;;;;;;5.82;2.67;;;;;;;;;;5012100;28;20029;-62
2023/04/05 05:59:14;;;;;;;3.70;2.42;;;;;;;;;;5011276;28;20105;-63
2023/04/05 06:01:45;;;;;;;5.70;3.05;;;;;;;;;;5011557;28;20521;-62
2023/04/05 06:04:11;;;;;;;5.97;2.88;;;;;;;;;;5010882;28;20401;-62
2023/04/05 06:06:37;;;;;;;3.70;2.47;;;;;;;;;;5010811;28;20080;-62
2023/04/05 06:09:03;;;;;;;3.80;2.70;;;;;;;;;;5011443;28;20030;-62
2023/04/05 06:11:29;;;;;;;3.85;2.90;;;;;;;;;;5011081;28;20049;-62
2023/04/05 06:13:55;;;;;;;7.60;2.85;;;;;;;;;;5010784;28;20076;-62
2023/04/05 06:16:21;;;;;;;4.38;2.63;;;;;;;;;;5011230;28;20065;-62
2023/04/05 06:18:47;;;;;;;7.07;2.95;;;;;;;;;;5011761;28;20030;-62
2023/04/05 06:21:14;;;;;;;7.88;2.97;;;;;;;;;;5011660;28;20022;-62
2023/04/05 06:23:40;;;;;;;7.45;3.00;;;;;;;;;;5010914;28;20072;-62
2023/04/05 06:26:07;;;;;;;4.88;3.50;;;;;;;;;;5011065;28;20022;-62
2023/04/05 06:28:32;;;;;;;4.82;3.83;;;;;;;;;;4994042;28;20022;-62
2023/04/05 06:30:59;;;;;;;9.95;5.03;;;;;;;;;;5001072;28;20052;-63
2023/04/05 06:33:25;;;;;;;8.32;4.50;;;;;;;;;;5011093;28;20045;-62
2023/04/05 06:35:51;;;;;;;7.70;4.85;;;;;;;;;;5010488;28;20021;-62
2023/04/05 06:38:17;;;;;;;6.93;4.80;;;;;;;;;;5011207;28;20506;-63
2023/04/05 06:40:43;;;;;;;7.97;5.03;;;;;;;;;;5010095;28;20026;-63
2023/04/05 06:43:09;;;;;;;10.02;5.05;;;;;;;;;;5011356;28;20540;-63
2023/04/05 06:45:36;;;;;;;9.52;4.43;;;;;;;;;;5010997;28;20423;-63
2023/04/05 06:48:02;;;;;;;9.52;4.30;;;;;;;;;;5011135;28;20029;-62
2023/04/05 06:50:28;;;;;;;8.68;5.10;;;;;;;;;;5010288;28;20092;-62
2023/04/05 06:52:54;;;;;;;6.22;4.47;;;;;;;;;;5011269;28;20026;-62
2023/04/05 06:55:20;;;;;;;10.05;4.47;;;;;;;;;;5011081;28;20041;-62
2023/04/05 06:57:46;;;;;;;7.70;4.70;;;;;;;;;;5012075;28;20029;-62
2023/04/05 07:00:13;;;;;;;7.53;4.45;;;;;;;;;;5020219;28;20389;-62
2023/04/05 07:02:39;;;;;;;8.52;4.30;;;;;;;;;;5014650;28;20446;-62
2023/04/05 07:05:05;;;;;;;5.43;4.20;;;;;;;;;;5014549;28;20427;-62
2023/04/05 07:07:35;;;;;;;7.05;4.82;;;;;;;;;;5012378;28;20421;-62
2023/04/05 07:10:01;;;;;;;8.30;4.50;;;;;;;;;;5011410;28;20025;-62
2023/04/05 07:12:27;;;;;;;7.82;4.70;;;;;;;;;;5011120;28;20160;-62
2023/04/05 07:14:53;;;;;;;6.95;4.63;;;;;;;;;;5030813;28;20556;-63
2023/04/05 07:17:19;;;;;;;7.15;3.97;;;;;;;;;;5028043;28;20026;-62
2023/04/05 07:19:45;;;;;;;8.23;5.47;;;;;;;;;;5004588;28;20540;-62
2023/04/05 07:22:11;;;;;;;7.85;4.30;;;;;;;;;;5016786;28;20084;-62
2023/04/05 07:24:37;;;;;;;7.07;4.53;;;;;;;;;;5023753;28;20425;-62
2023/04/05 07:27:03;;;;;;;9.18;4.65;;;;;;;;;;5019573;28;20022;-63
2023/04/05 07:29:29;;;;;;;7.25;4.65;;;;;;;;;;5010602;28;20033;-62
2023/04/05 07:31:55;;;;;;;10.70;4.82;;;;;;;;;;5017365;28;20457;-62
2023/04/05 07:34:21;;;;;;;6.10;4.30;;;;;;;;;;5017369;28;20493;-62
2023/04/05 07:36:49;;;;;;;8.65;4.63;;;;;;;;;;5018944;28;20026;-62
2023/04/05 07:39:15;;;;;;;7.30;3.78;;;;;;;;;;5018352;28;20071;-63
2023/04/05 07:41:41;;;;;;;5.63;4.47;;;;;;;;;;5018287;28;20109;-62
2023/04/05 07:44:07;;;;;;;7.13;4.20;;;;;;;;;;5019681;28;20159;-63
2023/04/05 07:46:34;;;;;;;6.15;4.03;;;;;;;;;;5019465;28;20025;-63
2023/04/05 07:49:00;;;;;;;6.57;4.03;;;;;;;;;;5019049;28;20085;-63
2023/04/05 07:51:26;;;;;;;7.38;4.38;;;;;;;;;;5020323;28;20018;-63
2023/04/05 07:53:52;;;;;;;8.70;4.53;;;;;;;;;;5023457;28;20041;-62
2023/04/05 07:56:18;;;;;;;7.78;4.20;;;;;;;;;;5018548;28;20026;-63
2023/04/05 07:58:44;;;;;;;7.85;4.25;;;;;;;;;;5008156;28;20116;-63
2023/04/05 08:01:10;;;;;;;7.57;4.15;;;;;;;;;;5013390;28;20049;-62
2023/04/05 08:03:38;;;;;;;9.70;4.07;;;;;;;;;;5014247;28;20018;-62
2023/04/05 08:06:16;;;;;;;6.35;4.25;;;;;;;;;;5014353;28;20386;-62
2023/04/05 08:08:42;;;;;;;6.00;3.95;;;;;;;;;;5013535;28;20335;-62
2023/04/05 08:11:08;;;;;;;6.40;3.90;;;;;;;;;;5014021;28;20521;-62
2023/04/05 08:13:35;;;;;;;5.88;3.80;;;;;;;;;;5014041;28;20074;-63
2023/04/05 08:16:01;;;;;;;5.55;3.63;;;;;;;;;;5014235;28;20101;-63
2023/04/05 08:18:27;;;;;;;8.35;4.25;;;;;;;;;;5016134;28;20036;-63
2023/04/05 08:20:54;;;;;;;6.50;4.10;;;;;;;;;;5019198;28;20061;-63
2023/04/05 08:23:20;;;;;;;6.20;4.00;;;;;;;;;;5022376;28;20033;-63
2023/04/05 08:25:46;;;;;;;6.80;3.70;;;;;;;;;;5020976;28;20125;-63
2023/04/05 08:28:13;;;;;;;6.93;3.70;;;;;;;;;;5022762;28;20393;-63
2023/04/05 08:30:39;;;;;;;6.80;3.65;;;;;;;;;;5021852;28;20105;-63
2023/04/05 08:33:06;;;;;;;5.45;3.50;;;;;;;;;;5021353;28;20033;-63
2023/04/05 08:35:32;;;;;;;5.97;3.42;;;;;;;;;;5024078;28;20060;-63
2023/04/05 08:37:58;;;;;;;7.00;3.60;;;;;;;;;;5022675;28;20032;-63
2023/04/05 08:40:28;;;;;;;6.13;3.53;;;;;;;;;;5020562;28;20543;-63
2023/04/05 08:43:03;;;;;;;5.03;3.63;;;;;;;;;;5018818;28;20590;-62
2023/04/05 08:45:31;;;;;;;5.35;3.13;;;;;;;;;;5013176;28;20897;-63
2023/04/05 08:47:58;;;;;;;5.22;3.15;;;;;;;;;;5013540;28;20109;-63
2023/04/05 08:50:26;;;;;;;8.07;3.65;;;;;;;;;;5012647;28;20069;-62
2023/04/05 08:52:52;;;;;;;5.53;2.97;;;;;;;;;;5013209;28;20026;-63
2023/04/05 08:55:18;;;;;;;5.43;3.22;;;;;;;;;;5013252;28;20057;-62
2023/04/05 08:57:48;;;;;;;6.78;3.60;;;;;;;;;;5013023;28;20025;-63
2023/04/05 09:00:15;;;;;;;5.95;3.17;;;;;;;;;;5014747;28;20038;-61
2023/04/05 09:02:43;;;;;;;5.88;3.25;;;;;;;;;;5013653;28;20100;-62
2023/04/05 09:05:10;;;;;;;5.15;3.08;;;;;;;;;;5013055;28;20034;-62
2023/04/05 09:07:36;;;;;;;5.25;3.38;;;;;;;;;;5012649;28;20477;-61
2023/04/05 09:10:05;;;;;;;5.50;3.05;;;;;;;;;;5013047;28;21344;-61
2023/04/05 09:12:31;;;;;;;5.43;3.08;;;;;;;;;;5012829;28;20032;-62
2023/04/05 09:15:00;;;;;;;5.30;3.10;;;;;;;;;;5012464;28;20044;-62
2023/04/05 09:17:27;;;;;;;8.77;3.45;;;;;;;;;;5012549;28;20373;-62
2023/04/05 09:19:53;;;;;;;5.30;3.33;;;;;;;;;;5012936;28;20030;-62
2023/04/05 09:22:19;;;;;;;5.57;2.97;;;;;;;;;;5012626;28;20022;-62
2023/04/05 09:24:46;;;;;;;5.72;3.25;;;;;;;;;;5012116;28;20017;-63
2023/04/05 09:27:15;;;;;;;5.70;3.53;;;;;;;;;;5012786;28;20030;-62
2023/04/05 09:29:43;;;;;;;6.07;2.90;;;;;;;;;;5012599;28;20026;-60
2023/04/05 09:32:10;;;;;;;6.20;3.13;;;;;;;;;;5013032;28;20025;-62
2023/04/05 09:34:36;;;;;;;6.13;3.22;;;;;;;;;;5012046;28;20038;-60
2023/04/05 09:37:03;;;;;;;5.07;2.92;;;;;;;;;;4994411;28;20034;-61
2023/04/05 09:39:32;;;;;;;5.05;2.88;;;;;;;;;;5014722;28;20038;-63
2023/04/05 09:42:05;;;;;;;3.58;2.40;;;;;;;;;;5031583;28;20083;-63
2023/04/05 09:44:50;;;;;;;6.05;3.35;;;;;;;;;;5031744;28;20037;-63
2023/04/05 09:47:17;;;;;;;8.35;3.33;;;;;;;;;;5011718;28;20029;-63
2023/04/05 09:49:43;;;;;;;4.97;2.80;;;;;;;;;;5010971;28;20551;-63
2023/04/05 09:52:25;;;;;;;4.65;3.00;;;;;;;;;;5011375;28;20113;-63
2023/04/05 09:54:57;;;;;;;4.68;3.00;;;;;;;;;;5012166;28;20046;-63
2023/04/05 09:57:25;;;;;;;4.95;2.85;;;;;;;;;;5011577;28;20026;-63
2023/04/05 09:59:51;;;;;;;5.60;2.80;;;;;;;;;;5011747;28;20523;-62
2023/04/05 10:02:17;;;;;;;5.13;2.70;;;;;;;;;;5012213;28;20375;-62
2023/04/05 10:04:47;;;;;;;4.07;2.67;;;;;;;;;;5011930;28;20165;-63
2023/04/05 10:07:14;;;;;;;4.35;2.28;;;;;;;;;;5017071;28;20555;-63
2023/04/05 10:09:40;;;;;;;3.53;2.20;;;;;;;;;;5013792;28;20101;-62
2023/04/05 10:12:07;;;;;;;6.50;2.55;;;;;;;;;;5010558;28;20451;-63
2023/04/05 10:14:34;;;;;;;3.28;2.03;;;;;;;;;;5010234;28;20391;-61
2023/04/05 10:17:12;;;;;;;7.05;2.38;;;;;;;;;;5011958;28;20030;-62
2023/04/05 10:19:41;;;;;;;6.13;2.40;;;;;;;;;;5011327;28;20098;-61
2023/04/05 10:22:12;;;;;;;4.35;2.88;;;;;;;;;;5012093;28;20500;-62
2023/04/05 10:24:49;;;;;;;5.10;2.70;;;;;;;;;;5011645;28;20482;-62
2023/04/05 10:27:23;;;;;;;3.75;2.60;;;;;;;;;;5011802;28;20030;-62
2023/04/05 10:30:01;;;;;;;6.30;2.90;;;;;;;;;;5011399;28;20093;-63
2023/04/05 10:32:31;;;;;;;6.43;2.67;;;;;;;;;;5011380;28;20116;-61
2023/04/05 10:35:00;;;;;;;4.45;3.00;;;;;;;;;;5011527;28;20394;-62
2023/04/05 10:37:36;;;;;;;4.20;3.03;;;;;;;;;;5010883;28;20458;-62
2023/04/05 10:40:02;;;;;;;;;;;;;;;;;;5011982;28;20030;-62
2023/04/05 10:42:27;;;;;;;;;;;;;;;;;;5011641;28;19917;-61
2023/04/05 10:45:03;;;;;;;6.22;2.67;;;;;;;;;;5011526;28;20324;-62
2023/04/05 10:47:31;;;;;;;5.22;3.17;;;;;;;;;;5010445;28;20049;-62
2023/04/05 10:49:59;;;;;;;6.55;3.10;;;;;;;;;;5009397;28;20498;-61
2023/04/05 10:52:26;;;;;;;5.15;3.00;;;;;;;;;;5010683;28;20033;-62
2023/04/05 10:54:52;;;;;;;6.10;2.78;;;;;;;;;;5011333;28;20034;-61
2023/04/05 10:57:19;;;;;;;4.95;2.80;;;;;;;;;;5019152;28;20026;-64
2023/04/05 10:59:46;;;;;;;3.78;2.58;;;;;;;;;;5010170;28;20121;-61
2023/04/05 11:02:13;;;;;;;3.10;2.28;;;;;;;;;;5011007;28;20014;-62
2023/04/05 11:04:40;;;;;;;5.45;2.97;;;;;;;;;;5011241;28;20040;-62
2023/04/05 11:07:15;;;;;;;6.40;2.80;;;;;;;;;;5011048;28;20105;-64
2023/04/05 11:09:51;;;;;;;5.65;3.42;;;;;;;;;;5011277;28;20029;-65
2023/04/05 11:12:17;;;;;;;7.07;2.65;;;;;;;;;;5027108;28;20061;-67
2023/04/05 11:14:43;;;;;;;6.35;2.72;;;;;;;;;;5030088;28;20047;-62
2023/04/05 11:17:26;;;;;;;5.53;2.78;;;;;;;;;;5024569;28;20025;-63
2023/04/05 11:19:57;;;;;;;5.93;2.78;;;;;;;;;;5011149;28;20030;-62
2023/04/05 11:22:27;;;;;;;4.57;2.70;;;;;;;;;;5011770;28;20022;-63
2023/04/05 11:25:01;;;;;;;4.50;3.05;;;;;;;;;;5011125;28;20034;-62
2023/04/05 11:27:31;;;;;;;5.95;3.75;;;;;;;;;;5013341;28;20490;-61
2023/04/05 11:29:58;;;;;;;6.95;3.10;;;;;;;;;;5014804;28;20152;-62
2023/04/05 11:32:37;;;;;;;6.40;3.60;;;;;;;;;;5014810;28;20435;-62
2023/04/05 11:35:07;;;;;;;4.97;3.45;;;;;;;;;;5020283;28;20490;-61
2023/04/05 11:37:52;;;;;;;7.63;3.28;;;;;;;;;;5021752;28;20390;-62
2023/04/05 11:40:34;;;;;;;5.18;3.20;;;;;;;;;;5021878;28;20022;-61
2023/04/05 11:43:06;;;;;;;8.93;3.25;;;;;;;;;;5019690;28;20030;-60
2023/04/05 11:45:33;;;;;;;5.13;3.35;;;;;;;;;;5023883;28;20113;-60
2023/04/05 11:48:09;;;;;;;5.82;2.95;;;;;;;;;;5019386;28;20022;-60
2023/04/05 11:50:35;;;;;;;5.28;3.30;;;;;;;;;;5021045;28;20032;-60
2023/04/05 11:53:11;;;;;;;5.53;3.20;;;;;;;;;;5022064;28;20033;-60
2023/04/05 11:55:38;;;;;;;5.78;3.10;;;;;;;;;;5021014;28;20529;-60
2023/04/05 11:58:11;;;;;;;6.95;3.30;;;;;;;;;;5013966;28;20449;-60
2023/04/05 12:00:37;;;;;;;8.82;3.53;;;;;;;;;;5013618;28;20367;-60
2023/04/05 12:03:03;;;;;;;6.03;3.55;;;;;;;;;;5018551;28;20032;-61
2023/04/05 12:05:44;;;;;;;5.53;3.28;;;;;;;;;;5033324;28;20060;-60
2023/04/05 12:08:10;;;;;;;5.47;3.20;;;;;;;;;;5011356;28;20030;-60
2023/04/05 12:10:36;;;;;;;6.18;3.42;;;;;;;;;;5025704;28;20108;-60
2023/04/05 12:13:02;;;;;;;6.70;3.72;;;;;;;;;;5033565;28;20025;-60
2023/04/05 12:15:28;;;;;;;9.95;3.58;;;;;;;;;;5033402;28;20042;-62
2023/04/05 12:17:54;;;;;;;5.53;3.40;;;;;;;;;;5017987;28;20492;-62
2023/04/05 12:20:23;;;;;;;5.03;3.20;;;;;;;;;;5018221;28;20041;-62
2023/04/05 12:22:51;;;;;;;4.07;2.88;;;;;;;;;;5016818;28;20032;-62
2023/04/05 12:25:17;;;;;;;8.60;3.35;;;;;;;;;;5013214;28;20026;-62
2023/04/05 12:27:43;;;;;;;6.72;3.30;;;;;;;;;;5013656;28;20030;-62
2023/04/05 12:30:15;;;;;;;5.90;3.58;;;;;;;;;;5013414;28;20072;-63
2023/04/05 12:32:44;;;;;;;4.13;2.85;;;;;;;;;;5013860;28;20104;-62
2023/04/05 12:35:15;;;;;;;5.22;3.30;;;;;;;;;;5015930;28;20052;-62
2023/04/05 12:37:41;;;;;;;5.53;3.53;;;;;;;;;;5012302;28;20026;-62
2023/04/05 12:40:08;;;;;;;6.78;3.45;;;;;;;;;;5012884;28;20030;-60
2023/04/05 12:42:35;;;;;;;5.10;3.08;;;;;;;;;;5012866;28;20153;-62
2023/04/05 12:45:09;;;;;;;6.55;3.80;;;;;;;;;;5013282;28;20125;-62
2023/04/05 12:47:35;;;;;;;6.15;4.10;;;;;;;;;;5013192;28;20038;-60
2023/04/05 12:50:14;;;;;;;6.05;3.20;;;;;;;;;;5013115;28;20026;-60
2023/04/05 12:52:51;;;;;;;4.43;2.90;;;;;;;;;;5012350;28;20101;-62
2023/04/05 12:55:17;;;;;;;4.53;3.20;;;;;;;;;;5012791;28;20037;-59
2023/04/05 12:57:44;;;;;;;6.30;3.55;;;;;;;;;;5013351;28;20514;-62
2023/04/05 13:00:11;;;;;;;4.60;3.13;;;;;;;;;;5029748;28;20038;-62
2023/04/05 13:02:37;;;;;;;5.25;3.53;;;;;;;;;;5025910;28;20088;-62
2023/04/05 13:05:03;;;;;;;4.28;3.25;;;;;;;;;;5020002;28;20441;-59
2023/04/05 13:07:29;;;;;;;4.85;3.20;;;;;;;;;;5022777;28;20028;-59
2023/04/05 13:09:55;;;;;;;5.32;3.20;;;;;;;;;;5028927;28;20027;-62
2023/04/05 13:12:21;;;;;;;4.90;3.45;;;;;;;;;;5017871;28;20080;-61
2023/04/05 13:14:47;;;;;;;4.63;3.25;;;;;;;;;;5020499;28;20056;-62
2023/04/05 13:17:13;;;;;;;5.78;3.85;;;;;;;;;;5022306;28;20535;-60
2023/04/05 13:19:39;;;;;;;6.05;3.38;;;;;;;;;;5016462;28;20026;-63
2023/04/05 13:22:05;;;;;;;5.07;3.42;;;;;;;;;;5020704;28;20087;-60
2023/04/05 13:24:31;;;;;;;5.10;3.47;;;;;;;;;;5022471;28;20034;-62
2023/04/05 13:26:57;;;;;;;5.85;3.70;;;;;;;;;;5012637;28;20532;-60
2023/04/05 13:29:23;;;;;;;5.80;3.80;;;;;;;;;;5012344;28;20062;-60
2023/04/05 13:31:49;;;;;;;6.47;3.83;;;;;;;;;;5017067;28;20022;-62
2023/04/05 13:34:15;;;;;;;4.68;3.67;;;;;;;;;;5019978;28;20408;-61
2023/04/05 13:36:41;;;;;;;4.35;3.28;;;;;;;;;;5031783;28;20013;-60
2023/04/05 13:39:06;;;;;;;4.32;3.42;;;;;;;;;;5032033;28;20034;-60
2023/04/05 13:41:32;;;;;;;4.40;3.50;;;;;;;;;;5031812;28;20105;-60
2023/04/05 13:43:58;;;;;;;4.45;3.10;;;;;;;;;;5024161;28;20494;-60
2023/04/05 13:46:24;;;;;;;4.93;3.50;;;;;;;;;;5019263;28;20026;-60
2023/04/05 13:48:50;;;;;;;5.38;3.60;;;;;;;;;;5020485;28;20098;-61
2023/04/05 13:51:16;;;;;;;5.53;4.30;;;;;;;;;;5014156;28;20073;-60
2023/04/05 13:53:42;;;;;;;4.90;3.53;;;;;;;;;;5011741;28;20088;-60
2023/04/05 13:56:08;;;;;;;5.47;3.60;;;;;;;;;;5012177;28;20033;-60
2023/04/05 13:58:34;;;;;;;4.05;3.63;;;;;;;;;;5015240;28;20528;-61
2023/04/05 14:01:00;;;;;;;4.68;3.50;;;;;;;;;;5031298;28;20053;-61
2023/04/05 14:03:26;;;;;;;4.07;3.60;;;;;;;;;;5028112;28;20061;-60
2023/04/05 14:05:52;;;;;;;4.60;3.30;;;;;;;;;;5010929;28;20524;-62
2023/04/05 14:08:18;;;;;;;6.32;3.28;;;;;;;;;;5014963;28;20109;-59
2023/04/05 14:10:44;;;;;;;4.28;3.47;;;;;;;;;;5031571;28;20033;-60
2023/04/05 14:13:12;;;;;;;6.28;3.83;;;;;;;;;;5030413;28;20032;-62
2023/04/05 14:15:38;;;;;;;4.28;3.40;;;;;;;;;;5009377;28;20121;-60
2023/04/05 14:18:04;;;;;;;4.88;3.90;;;;;;;;;;5011818;28;20160;-60
2023/04/05 14:20:30;;;;;;;5.38;3.95;;;;;;;;;;5013891;28;20029;-60
2023/04/05 14:22:56;;;;;;;5.03;3.80;;;;;;;;;;5031317;28;20029;-60
2023/04/05 14:25:22;;;;;;;3.45;3.15;;;;;;;;;;5012730;28;20040;-60
2023/04/05 14:27:48;;;;;;;4.68;3.35;;;;;;;;;;5011554;28;20456;-60
2023/04/05 14:30:14;;;;;;;4.65;3.50;;;;;;;;;;5011832;28;20034;-60
2023/04/05 14:32:41;;;;;;;4.95;3.45;;;;;;;;;;5011280;28;20474;-60
2023/04/05 14:35:07;;;;;;;4.75;4.00;;;;;;;;;;5010683;28;20390;-60
2023/04/05 14:37:33;;;;;;;4.53;3.90;;;;;;;;;;5010859;28;20029;-60
2023/04/05 14:39:59;;;;;;;4.82;4.30;;;;;;;;;;5011498;28;20030;-60
2023/04/05 14:42:25;;;;;;;4.43;3.20;;;;;;;;;;5010659;28;20387;-59
2023/04/05 14:44:51;;;;;;;5.20;4.03;;;;;;;;;;5011223;28;20030;-60